Terminal Aerodrome Forecast
Issued by NWS San Angelo, TX

Current Version | Previous Version | Text Only | Print | Product List | Glossary On
Versions: 1 2 3 4 5 6 7 8 9 10 11 12 13 14 15 16 17 18 19 20 21 22 23 24
768
FTUS44 KSJT 222049 AAD
TAFSJT
TAF AMD
KSJT 222049Z 2221/2318 08006KT P6SM OVC020
     FM222200 10005KT P6SM BKN030
     FM230100 VRB04KT P6SM VCTS BKN035CB
     FM230600 VRB04KT P6SM BKN020
     FM231500 01009KT P6SM VCTS BKN030CB=

USA.gov is the U.S. government's official web portal to all federal, state and local government web resources and services.